Terminal Aerodrome Forecast
Issued by NWS

Home | Current Version | Previous Version | Text Only | Print | Product List | Glossary Off
Versions: 1 2 3 4 5 6 7 8 9 10 11 12 13 14 15

000
FTUS43 KOAX 261857 AAA
TAFCDR
TAF AMD
KCDR 261857Z 2619/2718 19007KT P6SM SCT025 BKN040
     FM262100 16012G18KT P6SM BKN080
     FM270200 18010KT P6SM BKN070=

USA.gov is the U.S. government's official web portal to all federal, state and local government web resources and services.